Ligonier, IN

10:23 EDT le 01 avril 2015 (GMT -0400)
Lake Wawasee | | Change Station
CLOSE
Current Station
Stations météorologiques personnelles
Location: Syracuse, IN
Altitude: 866 ft
Stations météo à proximité

Alt. 866 ft 41.40 °N, 85.67 °W | Updated 6 minutes ago

Ciel dégagé
Ciel dégagé
51.6 ° F
Paraît 51.6 ° F
N
2.7
Vent Variable Vent de Sud

Aujourd'hui
Haut(e) -- | Bas -- ° F
--% Risque de précip.
Hier
Haut(e) -- | Bas -- ° F
Precip. -- pouce
7:25 AM 8:07 PM
Lune gibbeuse croissante, 92% visible
Pression 30.12 pouce
Visibilité 10.0 Miles terrestres
Nuages Ciel dégagé
Point de rosée 40 ° F
Humidité 65%
Précipitations 0.00 pouce
Profondeur de la couche neigeuse Non disponible.
UV 2 sur 12
Pollen 6.50 sur 12
Qualité de l'air Non disponible.
Flu Activity Non disponible.
METAR KGSH 011353Z AUTO 25007KT 10SM CLR 07/02 A3010 RMK AO2 SLP197 T00720022

More Conditions Fewer Conditions

Pression 30.12 pouce
Visibilité 10.0 Miles terrestres
Nuages Ciel dégagé
Point de rosée 40 ° F
Humidité 65%
Précipitations 0.00 pouce
Profondeur de la couche neigeuse Non disponible.
UV 2 sur 12
Pollen 6.50 sur 12
Qualité de l'air Non disponible.
Flu Activity Non disponible.
METAR KGSH 011353Z AUTO 25007KT 10SM CLR 07/02 A3010 RMK AO2 SLP197 T00720022

More Conditions Fewer Conditions

10-Day Weather Forecast

Almanac

Astronomie

Apr. 01, 2015 Lever Coucher
Temps réel
Crépuscule civil
Crépuscule nautique
Crépuscule astronomique
Lune
Durée de lumière visible
Longueur du jour
Tomorrow will be .
, % of the Moon is Illuminated

Extrêmes aujourd'hui

State Highs State Lows

Community

WunderPhotos

Upload Photos

1,809,962 Photos téléchargées !

WunderBlogs® & News

Nearby

Qualité de l'air

  Qualité de l'air Indice de la qualité de l'air Polluant
Not available.

Épaisseur de neige

Station Depth Altitude

Activité sismique

Ville Distance Mag. Time & Date
Minimum magnitude displayed is 2.5.

Températures des eaux côtières

Lieu Température

Stations

Stations météo à proximité

Emplacement de la station Température Refroidissement éolien Point de rosée Humidité Vent Precip. Alt. Mise à jour Type